Williamstown, Missouri
Current Conditions -  °F | °C
As of 8:35 AM on Monday 22 Dec 2014 (Local Time) from KEOK Reporting Station
Unknown Precip Unknown Precip  
Wind Chill: 30°   Ceiling: 1800
Heat Index: 37°   Visibility: 3mi
Dew Point: 36°   Wind: 10mph
Humidity: 93%   Direction: 120°ESE
Pressure: 29.71"   Gusts: NA
Location:  40.24°N, 91.8°W
Report Text: KEOK 221435Z AUTO 12009KT 3SM -UP BKN018 OVC038 03/02 A2971 RMK AO2
Loading
Personal Weather Stations






























Interactive Weather Map New forecast layout! Learn more

10-Day Weather Forecast

Advertisements
Track Severe Weather on mobile